Time;durP1;ratioP1;P1;durP2;ratioP2;P2;SDS_P1;SDS_P2;PMS_P1;PMS_P2;Temp;Humidity;BMP_temperature;BMP_pressure;BME280_temperature;BME280_humidity;BME280_pressure;Samples;Min_cycle;Max_cycle;Signal;HPM_P1;HPM_P2
2023/05/19 00:02:12;;;;;;;4.03;1.20;;;;;;;10.31;83.20;101796.41;5158924;28;20034;-72
2023/05/19 00:04:43;;;;;;;5.88;1.30;;;;;;;10.44;82.82;101791.84;5160375;28;20022;-72
2023/05/19 00:07:18;;;;;;;3.33;1.20;;;;;;;10.42;82.58;101794.50;5155669;28;20457;-70
2023/05/19 00:09:48;;;;;;;6.95;1.20;;;;;;;10.30;83.00;101785.97;5155708;28;20019;-71
2023/05/19 00:12:19;;;;;;;5.43;1.27;;;;;;;10.31;83.35;101791.19;5157981;28;20022;-73
2023/05/19 00:14:49;;;;;;;6.93;1.23;;;;;;;10.38;83.77;101798.03;5154716;28;20027;-73
2023/05/19 00:17:20;;;;;;;4.50;1.10;;;;;;;10.34;83.02;101791.13;5161488;28;20105;-72
2023/05/19 00:19:51;;;;;;;4.25;1.00;;;;;;;10.50;82.45;101791.78;5155458;28;20041;-71
2023/05/19 00:22:21;;;;;;;4.57;1.20;;;;;;;10.45;83.08;101777.88;5161942;28;20072;-73
2023/05/19 00:24:52;;;;;;;10.93;2.00;;;;;;;10.42;83.64;101785.78;5158608;28;20027;-72
2023/05/19 00:27:22;;;;;;;7.90;1.42;;;;;;;10.56;82.18;101786.44;5159198;28;20026;-72
2023/05/19 00:29:52;;;;;;;3.63;1.10;;;;;;;10.52;83.04;101795.22;5162501;28;20014;-69
2023/05/19 00:32:22;;;;;;;3.78;1.33;;;;;;;10.51;83.29;101783.03;5159477;28;20506;-72
2023/05/19 00:34:53;;;;;;;2.88;1.25;;;;;;;10.48;82.52;101783.09;5163438;28;20026;-74
2023/05/19 00:37:23;;;;;;;3.55;1.00;;;;;;;10.48;83.54;101783.09;5157567;28;20030;-72
2023/05/19 00:39:53;;;;;;;7.50;1.42;;;;;;;10.37;83.51;101785.00;5160735;28;20493;-72
2023/05/19 00:42:24;;;;;;;4.47;1.30;;;;;;;10.45;83.54;101783.13;5163722;28;20113;-72
2023/05/19 00:44:54;;;;;;;5.78;1.33;;;;;;;10.48;83.87;101788.31;5166006;28;20027;-71
2023/05/19 00:47:25;;;;;;;6.97;1.30;;;;;;;10.32;84.41;101784.22;5164015;28;20025;-72
2023/05/19 00:49:55;;;;;;;6.93;1.30;;;;;;;10.28;85.05;101779.91;5164059;28;20091;-71
2023/05/19 00:52:26;;;;;;;3.60;1.10;;;;;;;10.13;84.67;101775.78;5160359;28;20014;-72
2023/05/19 00:54:57;;;;;;;3.45;1.13;;;;;;;10.21;85.38;101776.53;5145795;28;20133;-72
2023/05/19 00:57:27;;;;;;;7.60;1.75;;;;;;;10.31;84.99;101777.25;5159866;28;20117;-72
2023/05/19 00:59:58;;;;;;;7.03;1.48;;;;;;;10.30;85.08;101770.28;5159737;28;20033;-74
2023/05/19 01:02:28;;;;;;;5.25;1.40;;;;;;;10.31;84.54;101772.03;5163159;28;20019;-72
2023/05/19 01:04:59;;;;;;;5.05;1.42;;;;;;;10.41;84.44;101761.41;5160755;28;20026;-72
2023/05/19 01:07:29;;;;;;;3.05;1.17;;;;;;;10.50;84.15;101766.47;5152939;28;20026;-74
2023/05/19 01:09:59;;;;;;;4.30;1.45;;;;;;;10.32;84.71;101772.00;5157248;28;20096;-72
2023/05/19 01:12:30;;;;;;;5.57;1.17;;;;;;;10.32;84.61;101766.78;5166557;28;20030;-72
2023/05/19 01:15:02;;;;;;;9.55;1.30;;;;;;;10.29;85.54;101774.66;5162358;28;20026;-72
2023/05/19 01:17:39;;;;;;;5.85;1.27;;;;;;;10.39;84.59;101765.81;5161211;28;20505;-69
2023/05/19 01:20:24;;;;;;;8.13;1.45;;;;;;;10.27;85.71;101775.56;5164143;28;20038;-73
2023/05/19 01:23:06;;;;;;;8.18;1.55;;;;;;;10.16;86.04;101780.94;5165492;28;20102;-72
2023/05/19 01:25:57;;;;;;;4.03;1.42;;;;;;;10.04;87.09;101772.44;5160513;28;20030;-72
2023/05/19 01:28:56;;;;;;;9.10;1.50;;;;;;;10.18;85.87;101778.31;5159589;28;20033;-74
2023/05/19 01:31:27;;;;;;;4.35;1.33;;;;;;;10.01;86.39;101775.06;5165736;28;20113;-72
2023/05/19 01:33:59;;;;;;;11.13;1.70;;;;;;;9.90;87.32;101771.72;5160830;28;20054;-71
2023/05/19 01:36:30;;;;;;;3.75;1.48;;;;;;;10.04;87.83;101775.03;5162915;28;20072;-72
2023/05/19 01:39:01;;;;;;;6.07;1.33;;;;;;;9.89;88.42;101780.44;5159753;28;20040;-72
2023/05/19 01:41:33;;;;;;;4.95;1.55;;;;;;;9.84;88.33;101782.25;5166618;28;20022;-71
2023/05/19 01:44:04;;;;;;;5.00;1.60;;;;;;;9.95;88.44;101793.41;5174527;28;20094;-73
2023/05/19 01:46:35;;;;;;;6.50;1.30;;;;;;;9.87;89.25;101797.88;5160340;28;20106;-71
2023/05/19 01:49:06;;;;;;;4.70;1.40;;;;;;;9.76;91.43;101794.53;5154145;28;20038;-72
2023/05/19 01:51:37;;;;;;;6.70;1.40;;;;;;;9.71;91.37;101796.34;5157716;28;20114;-70
2023/05/19 01:54:07;;;;;;;7.55;1.20;;;;;;;9.92;89.71;101790.84;5155984;28;20073;-72
2023/05/19 01:56:45;;;;;;;10.05;1.70;;;;;;;9.84;89.36;101784.88;5157704;28;20125;-72
2023/05/19 01:59:40;;;;;;;5.03;1.23;;;;;;;9.95;87.91;101790.78;5153747;28;20037;-70
2023/05/19 02:02:25;;;;;;;7.43;1.45;;;;;;;9.90;88.20;101796.09;5180204;28;20034;-72
2023/05/19 02:05:04;;;;;;;6.95;1.25;;;;;;;9.96;89.28;101800.38;5161930;28;20394;-71
2023/05/19 02:07:43;;;;;;;4.13;1.25;;;;;;;10.02;89.09;101797.72;5164276;28;20045;-73
2023/05/19 02:10:21;;;;;;;4.28;1.20;;;;;;;10.01;89.39;101790.72;5162848;28;20546;-71
2023/05/19 02:12:52;;;;;;;4.07;1.30;;;;;;;10.08;88.59;101797.63;5163040;28;20076;-72
2023/05/19 02:15:33;;;;;;;4.47;1.10;;;;;;;10.07;87.57;101793.28;5166389;28;20515;-72
2023/05/19 02:18:05;;;;;;;6.60;1.52;;;;;;;10.12;87.33;101789.72;5165798;28;20111;-73
2023/05/19 02:20:35;;;;;;;6.20;1.23;;;;;;;10.07;87.56;101785.44;5165268;28;20397;-71
2023/05/19 02:23:05;;;;;;;4.60;1.33;;;;;;;10.02;88.73;101779.44;5164773;28;20033;-74
2023/05/19 02:25:36;;;;;;;6.72;1.60;;;;;;;10.22;87.72;101786.09;5165084;28;20026;-71
2023/05/19 02:28:06;;;;;;;6.63;1.80;;;;;;;10.14;87.26;101787.09;5159235;28;20388;-73
2023/05/19 02:30:36;;;;;;;4.07;1.20;;;;;;;10.08;88.51;101787.16;5161905;28;20026;-71
2023/05/19 02:33:07;;;;;;;4.85;1.60;;;;;;;10.07;88.71;101780.22;5163081;28;20033;-73
2023/05/19 02:35:37;;;;;;;6.22;1.50;;;;;;;9.98;88.51;101789.00;5161566;28;20034;-72
2023/05/19 02:38:07;;;;;;;4.32;1.10;;;;;;;9.93;89.04;101782.13;5161487;28;20037;-73
2023/05/19 02:40:38;;;;;;;7.18;1.52;;;;;;;9.95;89.59;101785.56;5161843;28;20038;-71
2023/05/19 02:43:08;;;;;;;6.15;1.67;;;;;;;9.88;89.51;101781.31;5209307;23;20037;-70
2023/05/19 02:45:38;;;;;;;4.47;1.40;;;;;;;9.67;89.98;101779.00;5202644;28;20231;-70
2023/05/19 02:48:08;;;;;;;2.63;1.20;;;;;;;9.75;90.52;101777.16;5204509;28;20107;-70
2023/05/19 02:50:39;;;;;;;6.47;1.60;;;;;;;9.73;91.35;101781.53;5199169;28;20049;-70
2023/05/19 02:53:09;;;;;;;5.35;1.27;;;;;;;9.73;91.24;101774.56;5184564;28;20617;-70
2023/05/19 02:55:39;;;;;;;8.02;1.52;;;;;;;9.66;90.95;101775.53;5179298;28;20033;-70
2023/05/19 02:58:09;;;;;;;6.10;1.45;;;;;;;9.75;91.18;101777.16;5179940;28;20179;-70
2023/05/19 03:00:40;;;;;;;8.23;1.77;;;;;;;9.66;91.32;101777.28;5181970;28;20034;-70
2023/05/19 03:03:10;;;;;;;5.25;1.30;;;;;;;9.53;91.66;101778.31;5182451;28;20124;-70
2023/05/19 03:05:40;;;;;;;6.32;1.55;;;;;;;9.54;91.09;101785.25;5183436;28;20075;-70
2023/05/19 03:08:11;;;;;;;6.88;1.65;;;;;;;9.52;92.53;101774.81;5179697;28;20036;-70
2023/05/19 03:10:41;;;;;;;4.80;1.42;;;;;;;9.68;92.03;101770.28;5180257;28;20570;-70
2023/05/19 03:13:11;;;;;;;6.15;1.50;;;;;;;9.47;91.80;101783.59;5178832;28;20122;-70
2023/05/19 03:15:42;;;;;;;4.93;1.27;;;;;;;9.33;92.95;101788.97;5184646;28;20041;-70
2023/05/19 03:18:12;;;;;;;4.10;1.50;;;;;;;9.30;93.19;101783.78;5182806;28;20030;-70
2023/05/19 03:20:43;;;;;;;7.43;1.60;;;;;;;9.26;93.48;101787.31;5197588;28;20056;-70
2023/05/19 03:23:13;;;;;;;7.93;1.58;;;;;;;9.19;95.03;101784.78;5181933;28;20025;-70
2023/05/19 03:25:43;;;;;;;3.20;1.50;;;;;;;9.22;93.82;101779.53;5183131;28;20037;-70
2023/05/19 03:28:14;;;;;;;3.72;1.30;;;;;;;9.34;93.45;101785.47;5180292;28;20029;-69
2023/05/19 03:30:44;;;;;;;4.00;1.63;;;;;;;9.20;94.10;101783.91;5178079;28;20525;-70
2023/05/19 03:33:15;;;;;;;4.15;1.45;;;;;;;9.34;93.43;101784.63;5181772;28;20026;-68
2023/05/19 03:35:45;;;;;;;7.38;1.90;;;;;;;9.25;93.51;101785.59;5198751;28;20037;-70
2023/05/19 03:38:16;;;;;;;7.18;1.83;;;;;;;9.11;94.38;101784.03;5180620;28;20076;-70
2023/05/19 03:40:46;;;;;;;5.18;1.48;;;;;;;9.12;95.16;101790.09;5182719;28;20053;-70
2023/05/19 03:43:16;;;;;;;4.07;1.40;;;;;;;9.16;95.15;101787.44;5181873;28;20048;-70
2023/05/19 03:45:47;;;;;;;4.05;1.58;;;;;;;9.30;94.14;101786.41;5185123;28;20033;-70
2023/05/19 03:48:17;;;;;;;6.20;1.40;;;;;;;9.29;94.18;101791.66;5185320;28;20042;-70
2023/05/19 03:50:48;;;;;;;5.60;1.42;;;;;;;9.32;94.45;101786.38;5181248;28;20502;-70
2023/05/19 03:53:18;;;;;;;8.02;1.60;;;;;;;9.21;94.15;101788.25;5182546;28;20026;-68
2023/05/19 03:55:49;;;;;;;6.75;1.50;;;;;;;9.19;95.45;101793.50;5186166;28;20040;-69
2023/05/19 03:58:19;;;;;;;3.15;1.30;;;;;;;9.20;95.38;101787.41;5183344;28;20483;-70
2023/05/19 04:00:50;;;;;;;4.60;1.60;;;;;;;9.33;93.88;101782.91;5185951;28;20025;-69
2023/05/19 04:03:20;;;;;;;6.63;1.70;;;;;;;9.29;93.43;101789.88;5186006;28;20036;-68
2023/05/19 04:05:51;;;;;;;8.18;1.70;;;;;;;9.51;93.82;101793.13;5185109;28;20029;-69
2023/05/19 04:08:21;;;;;;;8.45;2.22;;;;;;;9.46;93.61;101792.31;5181398;28;20033;-70
2023/05/19 04:10:52;;;;;;;7.72;1.60;;;;;;;9.40;94.71;101794.97;5188834;28;20033;-70
2023/05/19 04:13:22;;;;;;;8.55;2.42;;;;;;;9.66;93.15;101792.94;5185617;28;20395;-69
2023/05/19 04:15:52;;;;;;;7.93;1.52;;;;;;;9.70;92.88;101774.63;5187802;28;20021;-70
2023/05/19 04:18:23;;;;;;;6.90;1.48;;;;;;;9.78;92.12;101783.19;5185639;28;20026;-70
2023/05/19 04:20:53;;;;;;;6.00;1.92;;;;;;;9.98;92.08;101782.94;5186785;28;20395;-70
2023/05/19 04:23:23;;;;;;;6.28;1.73;;;;;;;10.08;91.19;101777.59;5185011;28;20112;-70
2023/05/19 04:25:55;;;;;;;5.47;1.73;;;;;;;10.21;90.92;101788.72;5182575;28;20033;-70
2023/05/19 04:28:26;;;;;;;4.13;1.60;;;;;;;10.45;90.92;101788.34;5178722;28;20052;-70
2023/05/19 04:30:57;;;;;;;4.55;1.50;;;;;;;10.51;90.35;101786.50;5185352;28;20440;-69
2023/05/19 04:33:28;;;;;;;4.63;1.48;;;;;;;10.70;89.26;101779.22;5183049;28;20117;-71
2023/05/19 04:35:58;;;;;;;6.22;1.40;;;;;;;10.96;89.09;101775.28;5184475;28;20140;-71
2023/05/19 04:38:28;;;;;;;5.38;1.40;;;;;;;10.95;86.65;101791.84;5184563;28;20037;-70
2023/05/19 04:41:00;;;;;;;5.18;1.38;;;;;;;11.26;86.58;101787.78;5185482;28;20096;-69
2023/05/19 04:43:31;;;;;;;4.53;1.50;;;;;;;11.17;87.27;101786.22;5183267;28;20037;-70
2023/05/19 04:46:05;;;;;;;4.80;1.60;;;;;;;11.04;87.03;101781.22;5185864;28;20025;-71
2023/05/19 04:48:35;;;;;;;4.93;1.58;;;;;;;10.83;87.67;101781.59;5181807;28;20029;-71
2023/05/19 04:51:06;;;;;;;8.15;1.60;;;;;;;10.79;89.04;101779.94;5184678;28;20369;-71
2023/05/19 04:53:38;;;;;;;7.93;1.70;;;;;;;10.81;89.17;101785.13;5184715;28;20022;-71
2023/05/19 04:56:12;;;;;;;5.50;1.60;;;;;;;10.82;89.55;101786.88;5184488;28;20048;-70
2023/05/19 04:58:43;;;;;;;4.45;1.58;;;;;;;10.93;88.12;101787.53;5183452;28;20123;-71
2023/05/19 05:01:14;;;;;;;6.90;1.60;;;;;;;11.24;87.74;101782.56;5183402;28;20400;-70
2023/05/19 05:03:44;;;;;;;4.25;1.38;;;;;;;11.25;86.88;101786.91;5181267;28;20459;-70
2023/05/19 05:06:15;;;;;;;5.70;1.50;;;;;;;11.18;87.46;101785.31;5185991;28;20037;-70
2023/05/19 05:08:45;;;;;;;4.88;1.58;;;;;;;11.18;87.71;101790.56;5202213;28;20033;-70
2023/05/19 05:11:16;;;;;;;5.65;1.67;;;;;;;11.24;86.91;101790.44;5185192;28;20113;-70
2023/05/19 05:13:47;;;;;;;6.45;1.60;;;;;;;11.28;87.51;101791.25;5185039;28;20035;-69
2023/05/19 05:16:17;;;;;;;4.15;1.45;;;;;;;11.11;89.69;101799.38;5185096;28;20030;-71
2023/05/19 05:18:48;;;;;;;5.78;1.50;;;;;;;11.37;88.39;101791.94;5186152;28;20022;-70
2023/05/19 05:21:18;;;;;;;4.20;1.40;;;;;;;11.30;88.18;101799.94;5185194;28;20036;-71
2023/05/19 05:23:50;;;;;;;4.80;1.50;;;;;;;11.13;87.78;101787.13;5187984;28;20083;-70
2023/05/19 05:26:23;;;;;;;6.80;1.50;;;;;;;11.13;88.10;101787.13;5185595;28;20021;-70
2023/05/19 05:28:54;;;;;;;4.32;1.30;;;;;;;10.98;87.98;101797.03;5181805;28;20053;-70
2023/05/19 05:31:24;;;;;;;6.05;1.25;;;;;;;11.36;86.29;101792.81;5186037;28;20119;-70
2023/05/19 05:33:55;;;;;;;6.45;1.40;;;;;;;11.12;88.46;101787.19;5184341;28;20018;-69
2023/05/19 05:36:25;;;;;;;9.30;1.73;;;;;;;11.02;88.98;101784.75;5185581;28;20043;-69
2023/05/19 05:38:55;;;;;;;5.07;1.52;;;;;;;11.20;87.56;101785.28;5177300;28;20042;-69
2023/05/19 05:41:26;;;;;;;6.28;1.70;;;;;;;11.17;87.82;101783.59;5182973;28;20038;-70
2023/05/19 05:43:56;;;;;;;6.07;1.77;;;;;;;11.21;88.79;101790.50;5186950;28;20037;-72
2023/05/19 05:46:26;;;;;;;9.32;1.60;;;;;;;11.06;90.27;101784.66;5183799;28;20025;-71
2023/05/19 05:48:57;;;;;;;5.43;1.40;;;;;;;11.21;88.91;101785.25;5186895;28;20037;-71
2023/05/19 05:51:27;;;;;;;8.00;1.65;;;;;;;11.27;88.93;101779.91;5182615;28;20018;-71
2023/05/19 05:53:59;;;;;;;7.60;1.50;;;;;;;11.05;90.66;101778.59;5183700;28;20395;-71
2023/05/19 05:56:32;;;;;;;6.28;2.05;;;;;;;11.33;89.45;101781.53;5182022;28;20034;-71
2023/05/19 05:59:03;;;;;;;5.32;1.40;;;;;;;11.48;89.15;101773.38;5182474;28;20025;-71
2023/05/19 06:01:35;;;;;;;6.13;1.58;;;;;;;11.67;87.29;101775.66;5185358;28;20029;-72
2023/05/19 06:04:05;;;;;;;7.65;1.48;;;;;;;12.16;85.82;101776.28;5186462;28;20060;-72
2023/05/19 06:06:36;;;;;;;7.68;1.30;;;;;;;12.03;85.36;101780.09;5187351;28;20507;-71
2023/05/19 06:09:07;;;;;;;4.82;1.50;;;;;;;12.17;85.70;101780.66;5183993;28;20082;-72
2023/05/19 06:11:37;;;;;;;5.45;1.45;;;;;;;12.43;84.11;101783.50;5187682;28;20449;-72
2023/05/19 06:14:07;;;;;;;7.78;1.73;;;;;;;12.53;84.02;101782.41;5190669;28;20036;-72
2023/05/19 06:16:38;;;;;;;3.30;1.20;;;;;;;12.54;84.21;101778.88;5187207;28;20505;-72
2023/05/19 06:19:08;;;;;;;5.22;1.52;;;;;;;13.19;81.21;101783.31;5183759;28;20030;-72
2023/05/19 06:21:38;;;;;;;5.05;1.38;;;;;;;13.61;79.79;101774.25;5186754;28;20030;-72
2023/05/19 06:24:09;;;;;;;6.82;1.50;;;;;;;13.31;79.07;101781.22;5195223;28;20029;-72
2023/05/19 06:26:39;;;;;;;6.47;1.80;;;;;;;13.47;79.39;101784.28;5189314;28;20037;-72
2023/05/19 06:29:10;;;;;;;4.80;1.30;;;;;;;13.63;78.77;101780.31;5188126;28;20053;-71
2023/05/19 06:31:40;;;;;;;6.18;1.35;;;;;;;13.86;77.20;101780.50;5193568;28;20030;-73
2023/05/19 06:34:13;;;;;;;5.72;1.30;;;;;;;14.03;77.68;101783.47;5195395;28;20331;-72
2023/05/19 06:36:44;;;;;;;6.20;1.23;;;;;;;14.05;75.37;101782.53;5190393;28;20068;-72
2023/05/19 06:39:14;;;;;;;5.03;1.33;;;;;;;14.38;74.20;101785.91;5177963;28;20116;-72
2023/05/19 06:41:44;;;;;;;3.75;1.08;;;;;;;15.01;72.47;101774.97;5179581;28;20072;-72
2023/05/19 06:44:14;;;;;;;3.83;1.20;;;;;;;15.03;70.73;101783.69;5179130;28;20221;-73
2023/05/19 06:46:45;;;;;;;4.05;1.05;;;;;;;15.79;68.29;101782.69;5183964;28;20067;-73
2023/05/19 06:49:15;;;;;;;4.47;1.20;;;;;;;15.84;69.15;101780.72;5185734;28;20450;-72
2023/05/19 06:51:46;;;;;;;4.63;1.10;;;;;;;15.92;68.33;101786.59;5186514;28;20113;-72
2023/05/19 06:54:16;;;;;;;4.78;1.00;;;;;;;16.03;68.67;101783.53;5176183;28;20030;-72
2023/05/19 06:56:47;;;;;;;4.90;1.30;;;;;;;16.34;67.89;101778.75;5176059;28;20455;-73
2023/05/19 06:59:20;;;;;;;4.13;1.10;;;;;;;17.62;63.65;101775.03;5180869;28;20025;-73
2023/05/19 07:01:50;;;;;;;5.25;1.20;;;;;;;17.93;63.88;101776.19;5190411;28;20113;-71
2023/05/19 07:04:21;;;;;;;3.00;1.20;;;;;;;18.98;60.88;101763.03;5176285;28;20033;-72
2023/05/19 07:06:52;;;;;;;4.75;1.17;;;;;;;19.41;58.93;101763.41;5184002;28;20371;-72
2023/05/19 07:09:22;;;;;;;2.58;1.10;;;;;;;19.10;59.42;101768.53;5181521;28;20029;-73
2023/05/19 07:11:52;;;;;;;5.30;1.30;;;;;;;19.29;59.59;101768.50;5189494;28;20033;-71
2023/05/19 07:14:23;;;;;;;4.97;1.15;;;;;;;18.84;62.43;101774.34;5192286;28;20355;-72
2023/05/19 07:16:53;;;;;;;5.15;1.10;;;;;;;20.24;58.11;101761.47;5189500;28;20527;-72
2023/05/19 07:19:23;;;;;;;2.35;1.00;;;;;;;20.32;57.53;101756.59;5190133;28;20029;-73
2023/05/19 07:21:55;;;;;;;3.13;1.10;;;;;;;21.27;56.95;101750.81;5191113;28;20124;-73
2023/05/19 07:24:26;;;;;;;4.82;1.10;;;;;;;21.82;54.56;101748.31;5188292;28;20021;-72
2023/05/19 07:26:57;;;;;;;4.85;1.05;;;;;;;22.36;53.97;101739.41;5190365;28;20040;-72
2023/05/19 07:29:27;;;;;;;3.50;1.00;;;;;;;23.55;52.28;101735.63;5181543;28;20030;-72
2023/05/19 07:31:57;;;;;;;5.30;1.02;;;;;;;21.19;55.22;101737.16;5184853;28;20026;-72
2023/05/19 07:34:28;;;;;;;4.53;1.15;;;;;;;20.61;57.33;101751.31;5181431;28;20030;-72
2023/05/19 07:36:59;;;;;;;4.03;1.00;;;;;;;19.73;59.36;101745.72;5185251;28;20105;-72
2023/05/19 07:39:31;;;;;;;3.17;1.40;;;;;;;22.45;54.28;101729.03;5185708;28;20743;-73
2023/05/19 07:42:01;;;;;;;5.60;1.10;;;;;;;22.75;54.83;101725.19;5185065;28;20030;-73
2023/05/19 07:44:33;;;;;;;2.50;1.15;;;;;;;24.28;50.92;101729.34;5183972;28;20156;-73
2023/05/19 07:47:03;;;;;;;5.93;1.10;;;;;;;21.94;54.52;101732.41;5181529;28;20285;-74
2023/05/19 07:49:34;;;;;;;3.55;1.13;;;;;;;23.94;52.20;101728.31;5184000;28;20018;-74
2023/05/19 07:52:04;;;;;;;4.13;1.10;;;;;;;24.39;49.62;101724.09;5182257;28;20036;-73
2023/05/19 07:54:34;;;;;;;4.97;1.00;;;;;;;26.08;47.64;101713.31;5184863;28;20025;-73
2023/05/19 07:57:05;;;;;;;2.30;0.90;;;;;;;23.96;52.51;101722.84;5183814;28;20462;-73
2023/05/19 07:59:35;;;;;;;2.57;0.87;;;;;;;24.79;51.42;101718.31;5188871;28;20050;-73
2023/05/19 08:02:06;;;;;;;1.98;0.80;;;;;;;26.07;48.03;101706.25;5183762;28;20820;-73
2023/05/19 08:04:36;;;;;;;4.90;1.05;;;;;;;26.16;47.92;101708.19;5183922;28;20036;-73
2023/05/19 08:07:07;;;;;;;2.72;0.88;;;;;;;25.57;47.81;101707.63;5188227;28;20064;-73
2023/05/19 08:09:37;;;;;;;3.88;1.13;;;;;;;26.03;47.22;101704.81;5188091;28;20030;-73
2023/05/19 08:12:07;;;;;;;3.70;1.00;;;;;;;28.23;45.51;101699.72;5196908;28;20026;-73
2023/05/19 08:14:38;;;;;;;4.73;1.10;;;;;;;26.28;48.54;101715.22;5191669;28;20088;-72
2023/05/19 08:17:08;;;;;;;7.10;0.90;;;;;;;26.06;46.58;101710.78;5183223;28;20026;-73
2023/05/19 08:19:38;;;;;;;2.87;1.00;;;;;;;26.22;47.54;101711.22;5185118;28;20456;-72
2023/05/19 08:22:09;;;;;;;1.70;0.80;;;;;;;26.60;45.36;101700.00;5189486;28;20296;-72
2023/05/19 08:24:41;;;;;;;2.20;0.70;;;;;;;26.74;45.80;101698.72;5193535;28;20861;-73
2023/05/19 08:27:12;;;;;;;3.75;0.88;;;;;;;28.07;42.87;101704.78;5186980;28;20550;-72
2023/05/19 08:29:42;;;;;;;2.08;0.80;;;;;;;26.20;45.72;101702.44;5203910;28;20094;-73
2023/05/19 08:32:12;;;;;;;4.80;1.30;;;;;;;24.04;48.10;101710.63;5182507;28;20029;-73
2023/05/19 08:34:43;;;;;;;4.70;1.23;;;;;;;21.70;51.47;101709.13;5188147;28;20029;-73
2023/05/19 08:37:13;;;;;;;6.18;0.80;;;;;;;20.65;53.54;101705.00;5186028;28;20371;-72
2023/05/19 08:39:43;;;;;;;4.85;1.23;;;;;;;19.26;57.06;101712.97;5192532;28;20167;-72
2023/05/19 08:42:14;;;;;;;1.65;0.77;;;;;;;18.04;59.25;101718.28;5224271;22;20038;-75
2023/05/19 08:44:44;;;;;;;4.40;1.13;;;;;;;17.77;60.41;101713.47;5153580;28;20484;-76
2023/05/19 08:47:15;;;;;;;4.03;1.00;;;;;;;17.80;60.09;101710.69;5160483;28;20431;-76
2023/05/19 08:49:52;;;;;;;3.75;0.95;;;;;;;18.23;59.32;101699.75;5159349;28;20040;-74
2023/05/19 08:52:51;;;;;;;3.53;1.00;;;;;;;19.19;57.00;101693.00;5157609;28;20035;-74
2023/05/19 08:55:39;;;;;;;1.63;0.85;;;;;;;18.86;58.20;101698.28;5146241;28;20038;-78
2023/05/19 08:58:11;;;;;;;3.10;0.98;;;;;;;20.45;55.80;101689.38;5154900;28;20060;-77
2023/05/19 09:00:43;;;;;;;1.83;0.82;;;;;;;22.21;52.61;101676.47;5162173;28;20034;-77
2023/05/19 09:03:16;;;;;;;1.95;0.93;;;;;;;19.79;54.29;101701.16;5152129;28;20038;-78
2023/05/19 09:05:47;;;;;;;2.05;0.90;;;;;;;20.57;53.26;101691.34;5159049;28;20061;-76
2023/05/19 09:08:17;;;;;;;5.88;0.80;;;;;;;19.85;53.75;101686.69;5155569;28;20040;-77
2023/05/19 09:10:47;;;;;;;3.63;0.90;;;;;;;20.47;54.39;101692.81;5163284;28;20495;-74
2023/05/19 09:13:18;;;;;;;5.03;1.20;;;;;;;20.42;54.58;101684.25;5161384;28;20280;-78
2023/05/19 09:15:51;;;;;;;2.33;1.00;;;;;;;19.66;54.29;101697.50;5154050;28;20492;-73
2023/05/19 09:18:23;;;;;;;3.67;1.38;;;;;;;18.50;57.20;101695.78;5147855;28;20049;-77
2023/05/19 09:20:59;;;;;;;3.97;1.15;;;;;;;20.33;54.00;101682.13;5154032;28;20110;-77
2023/05/19 09:23:32;;;;;;;;;;;;;;;20.11;54.42;101684.31;5159187;28;20058;-77
2023/05/19 09:26:06;;;;;;;2.38;0.85;;;;;;;18.58;57.77;101690.94;5158414;28;19929;-76
2023/05/19 09:28:37;;;;;;;7.40;1.65;;;;;;;18.18;60.26;101691.19;5157686;28;20183;-76
2023/05/19 09:31:09;;;;;;;2.20;0.90;;;;;;;17.55;58.79;101694.25;5156260;28;20045;-74
2023/05/19 09:33:41;;;;;;;2.72;1.10;;;;;;;17.46;59.04;101689.41;5161278;28;20034;-77
2023/05/19 09:36:12;;;;;;;4.30;1.00;;;;;;;17.34;60.54;101684.66;5165797;28;20049;-75
2023/05/19 09:38:44;;;;;;;2.53;0.90;;;;;;;18.60;57.46;101683.78;5161307;28;20026;-76
2023/05/19 09:41:14;;;;;;;5.03;1.10;;;;;;;19.42;55.27;101669.63;5161314;28;20589;-76
2023/05/19 09:43:53;;;;;;;1.55;0.90;;;;;;;19.54;55.06;101684.88;5155737;28;20041;-77
2023/05/19 09:46:27;;;;;;;5.80;1.05;;;;;;;19.58;54.44;101674.97;5160088;28;20321;-77
2023/05/19 09:49:07;;;;;;;1.52;0.77;;;;;;;19.69;53.99;101675.22;5160884;28;20033;-74
2023/05/19 09:51:39;;;;;;;2.30;0.90;;;;;;;19.17;55.62;101679.00;5156909;28;20105;-77
2023/05/19 09:54:14;;;;;;;1.38;0.70;;;;;;;18.24;58.01;101675.00;5157052;28;20034;-77
2023/05/19 09:56:44;;;;;;;2.45;0.70;;;;;;;18.78;56.35;101666.00;5163626;28;20136;-77
2023/05/19 09:59:15;;;;;;;2.50;1.00;;;;;;;19.04;56.34;101665.50;5155738;28;20034;-75
2023/05/19 10:01:45;;;;;;;2.90;0.77;;;;;;;19.84;52.64;101659.31;5161873;28;20337;-77
2023/05/19 10:04:16;;;;;;;2.95;0.85;;;;;;;19.85;53.62;101655.72;5158864;28;20121;-77
2023/05/19 10:06:52;;;;;;;1.42;0.80;;;;;;;18.65;55.64;101655.28;5163944;28;20372;-76
2023/05/19 10:09:23;;;;;;;2.67;0.95;;;;;;;18.66;55.70;101663.13;5154579;28;20092;-77
2023/05/19 10:11:55;;;;;;;3.00;0.75;;;;;;;18.88;56.55;101659.28;5159574;28;20137;-77
2023/05/19 10:14:28;;;;;;;3.20;0.80;;;;;;;19.17;54.97;101653.34;5156316;28;20026;-77
2023/05/19 10:16:58;;;;;;;2.97;0.80;;;;;;;18.81;56.38;101652.63;5159995;28;20027;-75
2023/05/19 10:19:28;;;;;;;4.45;0.80;;;;;;;18.50;56.05;101650.78;5153567;28;20035;-75
2023/05/19 10:21:59;;;;;;;3.10;0.80;;;;;;;18.38;57.34;101646.94;5157346;28;20133;-75
2023/05/19 10:24:29;;;;;;;2.33;1.20;;;;;;;18.41;56.00;101640.63;5146361;28;20022;-75
2023/05/19 10:27:04;;;;;;;3.35;0.80;;;;;;;18.12;56.47;101635.91;5161530;28;20038;-77
2023/05/19 10:29:38;;;;;;;3.67;0.80;;;;;;;18.49;56.77;101633.16;5158275;28;20026;-77
2023/05/19 10:32:15;;;;;;;3.60;0.90;;;;;;;18.34;56.90;101633.94;5160484;28;20061;-76
2023/05/19 10:35:07;;;;;;;3.75;0.80;;;;;;;18.14;56.91;101636.72;5160593;28;20040;-74
2023/05/19 10:38:10;;;;;;;2.90;0.90;;;;;;;17.94;57.57;101628.88;5153691;28;20129;-75
2023/05/19 10:41:09;;;;;;;4.95;0.93;;;;;;;18.88;57.56;101632.81;5156516;28;20054;-75
2023/05/19 10:44:00;;;;;;;2.28;0.85;;;;;;;18.73;56.81;101616.00;5158883;28;20073;-76
2023/05/19 10:46:31;;;;;;;1.33;0.70;;;;;;;18.75;56.65;101626.44;5159671;28;20026;-76
2023/05/19 10:49:01;;;;;;;2.08;0.80;;;;;;;18.37;56.81;101623.19;5154514;28;20034;-77
2023/05/19 10:51:33;;;;;;;2.38;0.80;;;;;;;18.41;56.75;101622.97;5156058;28;20037;-77
2023/05/19 10:54:08;;;;;;;3.88;0.80;;;;;;;18.33;56.83;101619.00;5160980;28;20558;-74
2023/05/19 10:56:41;;;;;;;2.80;0.90;;;;;;;19.03;54.78;101610.78;5161475;28;20042;-76
2023/05/19 10:59:32;;;;;;;3.03;0.60;;;;;;;19.02;55.65;101614.38;5157010;28;20036;-77
2023/05/19 11:02:06;;;;;;;1.90;0.70;;;;;;;19.16;56.54;101606.56;5153948;28;20030;-76
2023/05/19 11:04:49;;;;;;;3.10;0.63;;;;;;;18.81;55.94;101609.38;5157615;28;20034;-74
2023/05/19 11:07:21;;;;;;;1.45;0.70;;;;;;;18.32;55.48;101610.19;5156939;28;20037;-77
2023/05/19 11:09:51;;;;;;;1.70;0.80;;;;;;;18.68;55.13;101607.44;5158519;28;20121;-77
2023/05/19 11:12:23;;;;;;;1.48;0.70;;;;;;;19.03;55.26;101602.84;5155853;28;20125;-74
2023/05/19 11:14:54;;;;;;;3.40;0.90;;;;;;;19.56;56.18;101605.22;5165598;28;20046;-78
2023/05/19 11:17:25;;;;;;;1.27;0.60;;;;;;;18.80;54.00;101615.59;5159630;28;20046;-75
2023/05/19 11:19:58;;;;;;;0.88;0.55;;;;;;;18.62;53.75;101607.75;5158002;28;20146;-74
2023/05/19 11:22:28;;;;;;;2.17;0.80;;;;;;;19.05;52.78;101611.56;5155177;28;20109;-72
2023/05/19 11:24:58;;;;;;;3.13;0.70;;;;;;;19.31;53.70;101603.06;5159492;28;20591;-72
2023/05/19 11:27:30;;;;;;;1.60;0.60;;;;;;;19.68;52.28;101594.78;5150326;28;20041;-73
2023/05/19 11:30:13;;;;;;;1.80;0.50;;;;;;;19.89;51.21;101588.25;5157720;28;20029;-74
2023/05/19 11:32:46;;;;;;;1.27;0.50;;;;;;;19.62;51.37;101592.47;5160967;28;20049;-76
2023/05/19 11:35:19;;;;;;;1.30;0.68;;;;;;;19.20;51.55;101596.66;5155547;28;20396;-75
2023/05/19 11:37:53;;;;;;;2.80;0.68;;;;;;;19.25;53.03;101590.16;5148527;28;20092;-74
2023/05/19 11:40:24;;;;;;;4.03;0.50;;;;;;;19.14;52.73;101581.88;5152398;28;20388;-75
2023/05/19 11:42:54;;;;;;;3.38;0.90;;;;;;;19.14;52.45;101579.25;5164909;28;20037;-76
2023/05/19 11:45:25;;;;;;;1.42;0.60;;;;;;;18.36;53.24;101585.25;5151797;28;20408;-76
2023/05/19 11:47:57;;;;;;;2.63;0.73;;;;;;;18.41;54.75;101579.75;5158039;28;20030;-76
2023/05/19 11:50:27;;;;;;;8.10;0.80;;;;;;;18.38;53.62;101587.84;5154496;28;20046;-77